createdAt,value
2023-04-16T00:01:25.335Z,74.84
2023-04-16T00:03:52.045Z,75.87
2023-04-16T00:06:18.747Z,75.46
2023-04-16T00:08:45.307Z,75.86
2023-04-16T00:11:11.829Z,75.39
2023-04-16T00:13:38.308Z,75.76
2023-04-16T00:16:04.969Z,75.08
2023-04-16T00:18:31.994Z,74.61
2023-04-16T00:20:59.597Z,74.65
2023-04-16T00:23:26.094Z,74.92
2023-04-16T00:25:53.812Z,74.50
2023-04-16T00:28:20.479Z,74.05
2023-04-16T00:30:46.958Z,74.14
2023-04-16T00:33:13.437Z,74.20
2023-04-16T00:35:39.955Z,73.79
2023-04-16T00:38:06.428Z,74.44
2023-04-16T00:40:32.880Z,74.48
2023-04-16T00:42:59.338Z,75.10
2023-04-16T00:45:25.822Z,74.25
2023-04-16T00:47:52.270Z,75.50
2023-04-16T00:50:18.840Z,75.43
2023-04-16T00:52:47.420Z,74.72
2023-04-16T00:55:15.063Z,74.97
2023-04-16T00:57:41.623Z,74.54
2023-04-16T01:00:08.693Z,74.73
2023-04-16T01:02:35.190Z,75.07
2023-04-16T01:05:02.459Z,75.70
2023-04-16T01:07:29.117Z,76.28
2023-04-16T01:09:56.271Z,76.42
2023-04-16T01:12:23.226Z,75.90
2023-04-16T01:14:49.799Z,75.85
2023-04-16T01:17:16.195Z,75.65
2023-04-16T01:19:42.953Z,76.25
2023-04-16T01:22:09.347Z,76.18
2023-04-16T01:24:36.466Z,77.15
2023-04-16T01:27:03.067Z,76.59
2023-04-16T01:29:29.498Z,76.12
2023-04-16T01:31:56.134Z,75.75
2023-04-16T01:34:23.122Z,77.14
2023-04-16T01:36:49.524Z,76.28
2023-04-16T01:39:16.450Z,76.21
2023-04-16T01:41:43.609Z,75.60
2023-04-16T01:44:10.157Z,75.97
2023-04-16T01:46:37.858Z,76.23
2023-04-16T01:49:05.505Z,75.58
2023-04-16T01:51:32.255Z,76.58
2023-04-16T01:53:58.890Z,75.95
2023-04-16T01:56:25.496Z,76.89
2023-04-16T01:58:52.705Z,76.45
2023-04-16T02:01:19.335Z,77.17
2023-04-16T02:03:46.210Z,76.66
2023-04-16T02:06:12.816Z,76.07
2023-04-16T02:08:39.263Z,77.58
2023-04-16T02:11:05.788Z,78.14
2023-04-16T02:13:32.242Z,77.98
2023-04-16T02:15:58.821Z,78.04
2023-04-16T02:18:25.325Z,78.99
2023-04-16T02:20:51.758Z,78.09
2023-04-16T02:23:18.191Z,79.17
2023-04-16T02:25:46.214Z,79.07
2023-04-16T02:28:14.717Z,78.20
2023-04-16T02:30:41.441Z,77.93
2023-04-16T02:33:10.447Z,78.66
2023-04-16T02:35:38.330Z,78.10
2023-04-16T02:38:04.801Z,79.04
2023-04-16T02:40:31.934Z,78.75
2023-04-16T02:42:58.544Z,77.75
2023-04-16T02:45:25.345Z,77.58
2023-04-16T02:47:51.959Z,78.83
2023-04-16T02:50:18.738Z,78.74
2023-04-16T02:52:45.391Z,77.75
2023-04-16T02:55:11.973Z,78.18
2023-04-16T02:57:38.399Z,78.59
2023-04-16T03:00:05.437Z,78.78
2023-04-16T03:02:31.995Z,78.87
2023-04-16T03:04:58.630Z,78.11
2023-04-16T03:07:25.102Z,78.38
2023-04-16T03:09:51.565Z,78.32
2023-04-16T03:12:17.995Z,78.88
2023-04-16T03:14:45.644Z,78.33
2023-04-16T03:17:12.110Z,79.15
2023-04-16T03:19:38.529Z,79.82
2023-04-16T03:22:04.977Z,79.71
2023-04-16T03:24:32.224Z,80.02
2023-04-16T03:26:58.869Z,80.51
2023-04-16T03:29:26.711Z,79.70
2023-04-16T03:31:53.226Z,79.72
2023-04-16T03:34:19.638Z,80.29
2023-04-16T03:36:46.292Z,79.88
2023-04-16T03:39:12.705Z,80.35
2023-04-16T03:41:39.153Z,80.47
2023-04-16T03:44:05.709Z,80.33
2023-04-16T03:46:32.313Z,80.68
2023-04-16T03:48:58.800Z,80.73
2023-04-16T03:51:26.435Z,80.94
2023-04-16T03:53:53.035Z,80.70
2023-04-16T03:56:19.474Z,80.99
2023-04-16T03:58:45.890Z,79.93
2023-04-16T04:01:12.400Z,81.41
2023-04-16T04:03:39.009Z,80.19
2023-04-16T04:06:09.274Z,80.35
2023-04-16T04:08:35.715Z,80.69
2023-04-16T04:11:02.120Z,80.81
2023-04-16T04:13:28.634Z,80.94
2023-04-16T04:15:55.638Z,80.96
2023-04-16T04:18:22.224Z,80.34
2023-04-16T04:20:48.723Z,81.49
2023-04-16T04:23:15.411Z,81.11
2023-04-16T04:25:41.830Z,80.88
2023-04-16T04:28:08.232Z,81.83
2023-04-16T04:30:35.816Z,81.96
2023-04-16T04:33:02.737Z,83.00
2023-04-16T04:35:29.244Z,82.05
2023-04-16T04:37:55.706Z,82.12
2023-04-16T04:40:22.240Z,82.61
2023-04-16T04:42:48.693Z,83.14
2023-04-16T04:45:15.302Z,82.60
2023-04-16T04:47:41.807Z,82.49
2023-04-16T04:50:08.588Z,82.29
2023-04-16T04:52:35.017Z,82.72
2023-04-16T04:55:01.595Z,81.65
2023-04-16T04:57:28.031Z,82.52
2023-04-16T04:59:54.512Z,82.14
2023-04-16T05:02:21.092Z,82.55
2023-04-16T05:04:47.664Z,83.29
2023-04-16T05:07:14.246Z,82.72
2023-04-16T05:09:40.665Z,83.29
2023-04-16T05:12:07.077Z,82.78
2023-04-16T05:14:35.661Z,83.56
2023-04-16T05:17:02.122Z,82.74
2023-04-16T05:19:28.703Z,83.05
2023-04-16T05:21:55.405Z,83.32
2023-04-16T05:24:22.352Z,84.24
2023-04-16T05:26:48.740Z,84.02
2023-04-16T05:29:15.168Z,83.93
2023-04-16T05:31:41.625Z,83.55
2023-04-16T05:34:08.009Z,82.78
2023-04-16T05:36:34.417Z,83.42
2023-04-16T05:39:00.803Z,83.53
2023-04-16T05:41:27.531Z,83.92
2023-04-16T05:43:53.933Z,82.22
2023-04-16T05:46:20.520Z,82.55
2023-04-16T05:48:46.950Z,83.53
2023-04-16T05:51:13.364Z,82.54
2023-04-16T05:53:39.865Z,82.82
2023-04-16T05:56:06.748Z,82.93
2023-04-16T05:58:33.980Z,82.89
2023-04-16T06:01:01.192Z,82.45
2023-04-16T06:03:27.806Z,83.84
2023-04-16T06:05:54.440Z,83.56
2023-04-16T06:08:20.884Z,83.27
2023-04-16T06:10:47.440Z,82.95
2023-04-16T06:13:13.882Z,83.45
2023-04-16T06:15:40.442Z,83.09
2023-04-16T06:18:06.970Z,83.17
2023-04-16T06:20:33.456Z,84.48
2023-04-16T06:22:59.873Z,83.32
2023-04-16T06:25:26.262Z,82.85
2023-04-16T06:27:52.733Z,83.02
2023-04-16T06:30:20.032Z,82.91
2023-04-16T06:32:46.663Z,82.34
2023-04-16T06:35:13.268Z,81.87
2023-04-16T06:37:39.872Z,82.61
2023-04-16T06:40:06.797Z,82.17
2023-04-16T06:42:33.300Z,81.53
2023-04-16T06:44:59.716Z,81.71
2023-04-16T06:47:27.076Z,81.49
2023-04-16T06:49:53.629Z,81.22
2023-04-16T06:52:20.144Z,81.74
2023-04-16T06:54:46.557Z,81.86
2023-04-16T06:57:13.013Z,81.46
2023-04-16T06:59:39.642Z,81.33
2023-04-16T07:02:07.249Z,81.03
2023-04-16T07:04:33.970Z,80.77
2023-04-16T07:07:00.473Z,80.68
2023-04-16T07:09:27.192Z,79.85
2023-04-16T07:11:54.013Z,80.64
2023-04-16T07:14:20.593Z,80.69
2023-04-16T07:16:47.069Z,79.72
2023-04-16T07:19:13.498Z,79.36
2023-04-16T07:21:41.946Z,78.89
2023-04-16T07:24:08.443Z,79.58
2023-04-16T07:26:34.897Z,79.83
2023-04-16T07:29:01.390Z,79.16
2023-04-16T07:31:27.963Z,79.48
2023-04-16T07:33:54.422Z,80.25
2023-04-16T07:36:20.930Z,79.33
2023-04-16T07:38:47.367Z,79.93
2023-04-16T07:41:13.861Z,79.49
2023-04-16T07:43:40.281Z,78.95
2023-04-16T07:46:06.793Z,78.80
2023-04-16T07:48:33.248Z,78.65
2023-04-16T07:50:59.734Z,78.49
2023-04-16T07:53:26.166Z,79.06
2023-04-16T07:55:52.581Z,78.43
2023-04-16T07:58:19.072Z,78.46
2023-04-16T08:00:45.659Z,77.70
2023-04-16T08:03:12.203Z,78.38
2023-04-16T08:05:38.758Z,78.59
2023-04-16T08:08:05.249Z,78.32
2023-04-16T08:10:31.683Z,79.36
2023-04-16T08:13:00.816Z,78.93
2023-04-16T08:15:27.722Z,78.96
2023-04-16T08:17:54.249Z,78.02
2023-04-16T08:20:20.725Z,78.73
2023-04-16T08:22:48.376Z,77.40
2023-04-16T08:25:15.476Z,77.64
2023-04-16T08:27:41.924Z,76.77
2023-04-16T08:30:08.445Z,75.97
2023-04-16T08:32:34.860Z,76.02
2023-04-16T08:35:01.373Z,74.94
2023-04-16T08:37:27.835Z,75.33
2023-04-16T08:39:54.353Z,74.31
2023-04-16T08:42:30.251Z,75.23
2023-04-16T08:45:05.446Z,74.77
2023-04-16T08:47:35.464Z,74.49
2023-04-16T08:50:03.853Z,74.18
2023-04-16T08:52:31.348Z,74.58
2023-04-16T08:55:07.856Z,74.15
2023-04-16T08:57:40.038Z,73.73
2023-04-16T09:00:07.830Z,73.44
2023-04-16T09:02:35.064Z,72.62
2023-04-16T09:05:04.904Z,73.03
2023-04-16T09:07:32.052Z,72.74
2023-04-16T09:09:59.738Z,73.24
2023-04-16T09:12:26.445Z,73.21
2023-04-16T09:14:53.338Z,72.71
2023-04-16T09:17:19.790Z,73.13
2023-04-16T09:19:46.413Z,72.23
2023-04-16T09:22:12.913Z,72.63
2023-04-16T09:24:39.404Z,71.97
2023-04-16T09:27:06.007Z,71.33
2023-04-16T09:29:38.282Z,70.83
2023-04-16T09:32:06.561Z,70.49
2023-04-16T09:34:34.077Z,70.81
2023-04-16T09:37:18.868Z,70.21
2023-04-16T09:40:02.156Z,70.02
2023-04-16T09:42:30.828Z,70.54
2023-04-16T09:45:00.272Z,69.87
2023-04-16T09:47:42.610Z,70.39
2023-04-16T09:50:12.415Z,70.00
2023-04-16T09:52:39.433Z,70.31
2023-04-16T09:55:06.284Z,69.58
2023-04-16T09:57:32.672Z,69.77
2023-04-16T10:00:05.250Z,70.33
2023-04-16T10:02:33.164Z,70.37
2023-04-16T10:05:01.199Z,70.39
2023-04-16T10:07:34.224Z,70.36
2023-04-16T10:10:00.659Z,70.30
2023-04-16T10:12:28.762Z,69.99
2023-04-16T10:14:55.296Z,70.30
2023-04-16T10:17:23.544Z,70.44
2023-04-16T10:19:50.991Z,69.58
2023-04-16T10:22:17.472Z,70.04
2023-04-16T10:24:44.028Z,70.43
2023-04-16T10:27:10.650Z,69.95
2023-04-16T10:29:37.396Z,69.81
2023-04-16T10:32:03.886Z,70.19
2023-04-16T10:34:31.448Z,70.45
2023-04-16T10:36:57.900Z,70.93
2023-04-16T10:39:25.726Z,69.00
2023-04-16T10:42:07.192Z,69.18
2023-04-16T10:44:33.632Z,69.42
2023-04-16T10:47:00.384Z,68.56
2023-04-16T10:49:27.168Z,68.38
2023-04-16T10:51:58.715Z,68.90
2023-04-16T10:54:26.411Z,69.17
2023-04-16T10:56:54.453Z,68.66
2023-04-16T10:59:22.324Z,69.58
2023-04-16T11:01:51.991Z,69.07
2023-04-16T11:04:22.065Z,69.46
2023-04-16T11:07:07.061Z,68.04
2023-04-16T11:09:56.438Z,68.68
2023-04-16T11:12:44.708Z,67.75
2023-04-16T11:15:12.151Z,66.45
2023-04-16T11:17:39.448Z,66.29
2023-04-16T11:20:19.640Z,66.54
2023-04-16T11:22:47.227Z,66.30
2023-04-16T11:25:19.669Z,65.34
2023-04-16T11:27:46.073Z,65.36
2023-04-16T11:30:13.528Z,63.87
2023-04-16T11:32:40.567Z,63.11
2023-04-16T11:35:17.754Z,63.67
2023-04-16T11:37:45.156Z,63.76
2023-04-16T11:40:12.474Z,63.60
2023-04-16T11:42:41.006Z,63.63
2023-04-16T11:45:08.939Z,63.13
2023-04-16T11:47:53.111Z,61.24
2023-04-16T11:50:20.450Z,61.59
2023-04-16T11:52:47.729Z,61.38
2023-04-16T11:55:14.429Z,60.24
2023-04-16T11:57:41.120Z,62.11
2023-04-16T12:00:13.571Z,60.97
2023-04-16T12:02:40.393Z,59.83
2023-04-16T12:05:27.389Z,59.64
2023-04-16T12:07:53.954Z,58.80
2023-04-16T12:10:20.353Z,59.51
2023-04-16T12:12:46.764Z,59.56
2023-04-16T12:15:13.564Z,59.45
2023-04-16T12:17:39.994Z,60.16
2023-04-16T12:20:11.052Z,60.15
2023-04-16T12:22:39.494Z,59.66
2023-04-16T12:25:08.087Z,59.94
2023-04-16T12:27:47.957Z,59.53
2023-04-16T12:30:16.009Z,59.43
2023-04-16T12:32:43.538Z,60.21
2023-04-16T12:35:13.429Z,58.47
2023-04-16T12:37:40.155Z,57.55
2023-04-16T12:40:07.206Z,56.49
2023-04-16T12:42:37.170Z,56.49
2023-04-16T12:45:04.988Z,56.80
2023-04-16T12:47:34.534Z,56.80
2023-04-16T12:50:01.194Z,56.02
2023-04-16T12:52:27.666Z,56.09
2023-04-16T12:54:54.206Z,57.47
2023-04-16T12:57:20.768Z,56.43
2023-04-16T12:59:47.311Z,56.54
2023-04-16T13:02:13.923Z,56.05
2023-04-16T13:04:40.520Z,56.45
2023-04-16T13:07:07.849Z,54.71
2023-04-16T13:09:34.389Z,54.87
2023-04-16T13:12:00.838Z,55.12
2023-04-16T13:14:27.283Z,55.38
2023-04-16T13:16:53.655Z,54.24
2023-04-16T13:19:21.091Z,54.96
2023-04-16T13:21:47.603Z,55.02
2023-04-16T13:24:14.096Z,54.07
2023-04-16T13:26:40.525Z,54.96
2023-04-16T13:29:07.018Z,54.87
2023-04-16T13:31:33.522Z,54.68
2023-04-16T13:34:00.037Z,54.73
2023-04-16T13:36:27.846Z,54.79
2023-04-16T13:38:54.514Z,54.22
2023-04-16T13:41:21.000Z,54.94
2023-04-16T13:43:47.470Z,55.75
2023-04-16T13:46:14.015Z,55.37
2023-04-16T13:48:40.702Z,54.72
2023-04-16T13:51:08.155Z,54.06
2023-04-16T13:53:35.689Z,54.10
2023-04-16T13:56:03.672Z,54.85
2023-04-16T13:58:30.305Z,55.03
2023-04-16T14:00:56.862Z,54.90
2023-04-16T14:03:24.836Z,55.79
2023-04-16T14:05:52.814Z,56.08
2023-04-16T14:08:21.224Z,56.42
2023-04-16T14:10:48.502Z,55.52
2023-04-16T14:13:15.425Z,55.70
2023-04-16T14:15:41.877Z,56.22
2023-04-16T14:18:08.403Z,55.89
2023-04-16T14:20:34.912Z,56.97
2023-04-16T14:23:01.355Z,55.66
2023-04-16T14:25:28.290Z,54.88
2023-04-16T14:27:55.056Z,55.67
2023-04-16T14:30:21.534Z,56.12
2023-04-16T14:32:48.359Z,56.27
2023-04-16T14:35:14.862Z,55.59
2023-04-16T14:37:41.364Z,55.15
2023-04-16T14:40:08.919Z,55.04
2023-04-16T14:42:39.450Z,56.25
2023-04-16T14:45:06.723Z,56.40
2023-04-16T14:47:34.385Z,56.15
2023-04-16T14:50:01.320Z,56.28
2023-04-16T14:52:27.849Z,56.00
2023-04-16T14:54:57.688Z,56.99
2023-04-16T14:57:24.249Z,58.41
2023-04-16T14:59:50.757Z,56.89
2023-04-16T15:02:17.629Z,56.48
2023-04-16T15:04:44.221Z,55.45
2023-04-16T15:07:10.708Z,54.93
2023-04-16T15:09:37.242Z,55.73
2023-04-16T15:12:04.231Z,54.45
2023-04-16T15:14:30.760Z,54.99
2023-04-16T15:16:57.230Z,55.22
2023-04-16T15:19:23.694Z,55.54
2023-04-16T15:21:50.515Z,53.86
2023-04-16T15:24:17.275Z,53.25
2023-04-16T15:26:43.942Z,53.56
2023-04-16T15:29:10.349Z,53.43
2023-04-16T15:31:36.805Z,54.80
2023-04-16T15:34:03.272Z,56.43
2023-04-16T15:36:29.876Z,55.84
2023-04-16T15:38:56.632Z,57.50
2023-04-16T15:41:24.524Z,57.47
2023-04-16T15:43:51.197Z,57.29
2023-04-16T15:46:17.787Z,58.44
2023-04-16T15:48:44.326Z,57.95
2023-04-16T15:51:10.923Z,57.36
2023-04-16T15:53:37.368Z,57.23
2023-04-16T15:56:04.098Z,57.68
2023-04-16T15:58:30.714Z,58.02
2023-04-16T16:00:57.311Z,58.27
2023-04-16T16:03:23.850Z,57.50
2023-04-16T16:05:50.614Z,56.62
2023-04-16T16:08:17.061Z,56.48
2023-04-16T16:10:43.452Z,56.06
2023-04-16T16:13:13.145Z,55.70
2023-04-16T16:15:43.136Z,55.66
2023-04-16T16:18:09.958Z,56.76
2023-04-16T16:20:36.651Z,57.56
2023-04-16T16:23:03.434Z,57.67
2023-04-16T16:25:30.299Z,57.93
2023-04-16T16:27:56.748Z,57.90
2023-04-16T16:30:23.233Z,58.52
2023-04-16T16:32:50.680Z,59.15
2023-04-16T16:35:17.150Z,58.29
2023-04-16T16:37:43.676Z,58.35
2023-04-16T16:40:11.111Z,59.30
2023-04-16T16:42:37.635Z,60.18
2023-04-16T16:45:05.926Z,60.29
2023-04-16T16:47:32.901Z,60.57
2023-04-16T16:50:01.317Z,60.78
2023-04-16T16:52:29.073Z,61.07
2023-04-16T16:54:56.750Z,61.10
2023-04-16T16:57:23.946Z,61.02
2023-04-16T16:59:50.992Z,61.45
2023-04-16T17:02:18.468Z,61.55
2023-04-16T17:04:45.017Z,62.00
2023-04-16T17:07:11.870Z,61.36
2023-04-16T17:09:38.761Z,61.08
2023-04-16T17:12:06.281Z,62.05
2023-04-16T17:14:33.367Z,61.54
2023-04-16T17:16:59.897Z,62.08
2023-04-16T17:19:26.405Z,62.29
2023-04-16T17:21:53.672Z,62.35
2023-04-16T17:24:20.096Z,61.56
2023-04-16T17:26:46.671Z,62.34
2023-04-16T17:29:13.369Z,62.80
2023-04-16T17:31:39.763Z,62.64
2023-04-16T17:34:06.375Z,62.54
2023-04-16T17:36:32.822Z,62.56
2023-04-16T17:38:59.281Z,62.38
2023-04-16T17:41:25.798Z,62.77
2023-04-16T17:43:52.212Z,62.84
2023-04-16T17:46:18.720Z,63.34
2023-04-16T17:48:45.552Z,63.36
2023-04-16T17:51:12.141Z,63.26
2023-04-16T17:53:38.932Z,63.71
2023-04-16T17:56:05.338Z,63.30
2023-04-16T17:58:34.914Z,63.89
2023-04-16T18:01:02.225Z,63.42
2023-04-16T18:03:28.981Z,63.72
2023-04-16T18:05:55.735Z,63.77
2023-04-16T18:08:23.255Z,64.13
2023-04-16T18:10:49.697Z,64.32
2023-04-16T18:13:16.158Z,64.22
2023-04-16T18:15:43.147Z,64.33
2023-04-16T18:18:09.796Z,65.52
2023-04-16T18:20:36.345Z,65.06
2023-04-16T18:23:02.973Z,65.02
2023-04-16T18:25:34.525Z,65.50
2023-04-16T18:28:02.081Z,65.86
2023-04-16T18:30:28.703Z,66.09
2023-04-16T18:33:25.360Z,66.13
2023-04-16T18:35:41.735Z,66.74
2023-04-16T18:38:08.178Z,66.54
2023-04-16T18:40:38.315Z,66.67
2023-04-16T18:43:04.926Z,66.39
2023-04-16T18:45:31.413Z,66.43
2023-04-16T18:48:03.475Z,66.91
2023-04-16T18:50:30.079Z,66.88
2023-04-16T18:52:56.495Z,66.58
2023-04-16T18:55:23.129Z,66.45
2023-04-16T18:57:49.723Z,66.79
2023-04-16T19:00:16.518Z,67.15
2023-04-16T19:02:43.027Z,66.71
2023-04-16T19:05:09.839Z,66.67
2023-04-16T19:07:37.413Z,66.46
2023-04-16T19:10:05.245Z,66.64
2023-04-16T19:12:32.178Z,66.49
2023-04-16T19:14:58.914Z,66.72
2023-04-16T19:17:25.535Z,66.91
2023-04-16T19:19:52.064Z,67.12
2023-04-16T19:22:18.507Z,67.02
2023-04-16T19:24:44.982Z,67.26
2023-04-16T19:27:11.441Z,67.04
2023-04-16T19:29:38.077Z,67.15
2023-04-16T19:32:04.635Z,67.51
2023-04-16T19:34:31.252Z,67.67
2023-04-16T19:36:57.676Z,67.55
2023-04-16T19:39:28.052Z,68.00
2023-04-16T19:41:54.525Z,67.99
2023-04-16T19:44:23.100Z,69.14
2023-04-16T19:46:49.519Z,68.87
2023-04-16T19:49:16.118Z,68.19
2023-04-16T19:51:42.532Z,68.63
2023-04-16T19:54:09.042Z,69.33
2023-04-16T19:56:35.763Z,68.92
2023-04-16T19:59:02.503Z,68.67
2023-04-16T20:01:30.745Z,68.76
2023-04-16T20:03:57.372Z,68.45
2023-04-16T20:06:24.044Z,69.02
2023-04-16T20:08:50.569Z,69.13
2023-04-16T20:11:17.651Z,69.26
2023-04-16T20:13:47.724Z,69.24
2023-04-16T20:16:14.384Z,69.52
2023-04-16T20:18:42.462Z,70.64
2023-04-16T20:21:09.537Z,70.92
2023-04-16T20:23:36.033Z,71.37
2023-04-16T20:26:02.555Z,72.62
2023-04-16T20:28:28.970Z,72.29
2023-04-16T20:30:55.500Z,71.97
2023-04-16T20:33:22.000Z,73.08
2023-04-16T20:35:49.086Z,72.52
2023-04-16T20:38:15.570Z,71.92
2023-04-16T20:40:44.597Z,71.62
2023-04-16T20:43:14.256Z,72.21
2023-04-16T20:45:41.201Z,74.27
2023-04-16T20:48:07.906Z,76.07
2023-04-16T20:50:34.394Z,76.82
2023-04-16T20:53:01.213Z,76.75
2023-04-16T20:55:27.676Z,77.78
2023-04-16T20:57:54.139Z,78.78
2023-04-16T21:00:20.861Z,78.59
2023-04-16T21:02:47.469Z,77.87
2023-04-16T21:05:14.508Z,80.00
2023-04-16T21:07:41.954Z,79.38
2023-04-16T21:10:11.590Z,79.41
2023-04-16T21:12:38.082Z,81.84
2023-04-16T21:15:04.914Z,83.04
2023-04-16T21:17:31.679Z,84.98
2023-04-16T21:19:58.413Z,86.25
2023-04-16T21:22:25.091Z,87.06
2023-04-16T21:24:51.553Z,86.68
2023-04-16T21:27:17.966Z,86.68
2023-04-16T21:29:44.400Z,86.69
2023-04-16T21:32:10.827Z,86.11
2023-04-16T21:34:37.220Z,87.13
2023-04-16T21:37:03.745Z,86.08
2023-04-16T21:39:31.116Z,86.97
2023-04-16T21:41:57.934Z,87.70
2023-04-16T21:44:27.259Z,86.08
2023-04-16T21:46:54.030Z,86.10
2023-04-16T21:49:20.527Z,87.14
2023-04-16T21:51:47.061Z,86.56
2023-04-16T21:54:13.488Z,86.06
2023-04-16T21:56:39.941Z,86.28
2023-04-16T21:59:06.424Z,86.50
2023-04-16T22:01:32.965Z,86.38
2023-04-16T22:03:59.576Z,86.30
2023-04-16T22:06:27.116Z,85.20
2023-04-16T22:08:53.631Z,86.98
2023-04-16T22:11:20.702Z,86.36
2023-04-16T22:13:47.844Z,87.13
2023-04-16T22:16:14.428Z,87.36
2023-04-16T22:18:41.167Z,87.55
2023-04-16T22:21:07.740Z,89.33
2023-04-16T22:23:34.166Z,90.27
2023-04-16T22:26:02.592Z,90.14
2023-04-16T22:28:28.985Z,90.40
2023-04-16T22:30:56.343Z,91.52
2023-04-16T22:33:22.747Z,91.41
2023-04-16T22:35:49.212Z,90.95
2023-04-16T22:38:16.499Z,90.95
2023-04-16T22:40:43.007Z,92.95
2023-04-16T22:43:09.459Z,92.98
2023-04-16T22:45:37.424Z,92.46
2023-04-16T22:48:04.212Z,92.87
2023-04-16T22:50:31.926Z,93.58
2023-04-16T22:52:58.343Z,93.75
2023-04-16T22:55:24.746Z,94.07
2023-04-16T22:57:51.130Z,93.94
2023-04-16T23:00:18.106Z,95.07
2023-04-16T23:02:45.261Z,93.98
2023-04-16T23:05:12.090Z,94.45
2023-04-16T23:07:38.706Z,95.21
2023-04-16T23:10:05.743Z,95.38
2023-04-16T23:12:32.206Z,95.28
2023-04-16T23:15:00.484Z,94.72
2023-04-16T23:17:27.187Z,94.50
2023-04-16T23:19:53.691Z,95.11
2023-04-16T23:22:20.113Z,94.94
2023-04-16T23:24:46.789Z,94.81
2023-04-16T23:27:13.190Z,94.53
2023-04-16T23:29:40.160Z,94.87
2023-04-16T23:32:06.792Z,95.50
2023-04-16T23:34:33.260Z,94.94
2023-04-16T23:37:01.651Z,95.11
2023-04-16T23:39:28.081Z,95.50
2023-04-16T23:41:54.454Z,95.74
2023-04-16T23:44:20.905Z,95.33
2023-04-16T23:46:47.419Z,94.77
2023-04-16T23:49:13.904Z,93.93
2023-04-16T23:51:40.587Z,94.13
2023-04-16T23:54:07.061Z,94.79
2023-04-16T23:56:33.506Z,95.98
2023-04-16T23:58:59.892Z,94.49
